Time;durP1;ratioP1;P1;durP2;ratioP2;P2;SDS_P1;SDS_P2;PMS_P1;PMS_P2;Temp;Humidity;BMP_temperature;BMP_pressure;BME280_temperature;BME280_humidity;BME280_pressure;Samples;Min_cycle;Max_cycle;Signal;HPM_P1;HPM_P2
2022/05/16 00:02:07;;;;;;;18.50;9.45;;;;;;;;;;5086998;28;20020;-78
2022/05/16 00:04:36;;;;;;;14.52;11.48;;;;;;;;;;5068571;28;20398;-77
2022/05/16 00:07:02;;;;;;;14.38;11.30;;;;;;;;;;5086365;28;20024;-79
2022/05/16 00:09:29;;;;;;;20.95;12.43;;;;;;;;;;5089694;28;20078;-78
2022/05/16 00:11:56;;;;;;;15.93;12.38;;;;;;;;;;5107912;28;20038;-78
2022/05/16 00:14:23;;;;;;;16.02;12.82;;;;;;;;;;5112454;28;20063;-78
2022/05/16 00:16:49;;;;;;;16.02;12.90;;;;;;;;;;5112367;28;20022;-79
2022/05/16 00:19:16;;;;;;;21.55;13.35;;;;;;;;;;5106306;28;20024;-79
2022/05/16 00:21:43;;;;;;;20.50;13.73;;;;;;;;;;5093978;28;20020;-78
2022/05/16 00:24:10;;;;;;;15.82;13.25;;;;;;;;;;5102071;28;20102;-78
2022/05/16 00:26:36;;;;;;;17.52;12.88;;;;;;;;;;5095828;28;20386;-79
2022/05/16 00:29:03;;;;;;;14.73;12.45;;;;;;;;;;5091437;28;20026;-78
2022/05/16 00:31:30;;;;;;;15.43;13.25;;;;;;;;;;5109241;28;20475;-77
2022/05/16 00:33:56;;;;;;;19.02;14.02;;;;;;;;;;5116027;28;20485;-77
2022/05/16 00:36:23;;;;;;;18.90;13.10;;;;;;;;;;5116110;28;20024;-78
2022/05/16 00:38:54;;;;;;;20.13;14.83;;;;;;;;;;5116122;28;20081;-77
2022/05/16 00:41:21;;;;;;;19.50;14.17;;;;;;;;;;5109425;28;20035;-78
2022/05/16 00:43:47;;;;;;;18.67;13.87;;;;;;;;;;5092996;28;20040;-77
2022/05/16 00:46:15;;;;;;;17.07;13.57;;;;;;;;;;5090348;28;20438;-77
2022/05/16 00:48:42;;;;;;;20.07;13.90;;;;;;;;;;5096823;28;20036;-78
2022/05/16 00:51:14;;;;;;;16.20;14.50;;;;;;;;;;5110449;28;20030;-78
2022/05/16 00:53:42;;;;;;;19.83;13.60;;;;;;;;;;5112282;28;20034;-78
2022/05/16 00:56:09;;;;;;;15.23;12.93;;;;;;;;;;5115710;28;20062;-78
2022/05/16 00:58:36;;;;;;;17.00;13.80;;;;;;;;;;5109890;28;20020;-79
2022/05/16 01:01:03;;;;;;;18.37;12.73;;;;;;;;;;5095644;28;20055;-78
2022/05/16 01:06:14;;;;;;;17.00;13.60;;;;;;;;;;5112950;28;20390;-77
2022/05/16 01:08:43;;;;;;;17.60;13.00;;;;;;;;;;5110333;28;20381;-79
2022/05/16 01:11:12;;;;;;;16.00;13.70;;;;;;;;;;5109872;28;20526;-78
2022/05/16 01:13:39;;;;;;;18.90;13.63;;;;;;;;;;5104216;28;20031;-78
2022/05/16 01:16:06;;;;;;;19.40;13.80;;;;;;;;;;5091836;28;20027;-77
2022/05/16 01:18:33;;;;;;;19.70;13.57;;;;;;;;;;5094993;28;20484;-78
2022/05/16 01:21:09;;;;;;;16.33;13.13;;;;;;;;;;5094714;28;20021;-78
2022/05/16 01:23:42;;;;;;;17.43;12.20;;;;;;;;;;5109177;28;20020;-77
2022/05/16 01:26:12;;;;;;;15.80;12.50;;;;;;;;;;5094714;28;20485;-77
2022/05/16 01:28:39;;;;;;;17.03;13.40;;;;;;;;;;5091995;28;20020;-78
2022/05/16 01:31:05;;;;;;;18.77;13.03;;;;;;;;;;5088632;28;20031;-78
2022/05/16 01:33:32;;;;;;;17.40;12.80;;;;;;;;;;5090842;28;20035;-78
2022/05/16 01:35:59;;;;;;;17.40;13.90;;;;;;;;;;5109921;28;20032;-78
2022/05/16 01:38:26;;;;;;;16.33;13.73;;;;;;;;;;5109261;28;20016;-78
2022/05/16 01:40:54;;;;;;;23.30;13.87;;;;;;;;;;5094323;28;20043;-78
2022/05/16 01:43:26;;;;;;;15.30;13.23;;;;;;;;;;5094353;28;20412;-78
2022/05/16 01:45:52;;;;;;;18.30;13.37;;;;;;;;;;5094400;28;20083;-77
2022/05/16 01:48:20;;;;;;;15.60;12.47;;;;;;;;;;5093816;28;20028;-79
2022/05/16 01:50:48;;;;;;;16.97;12.57;;;;;;;;;;5090549;28;20047;-78
2022/05/16 01:53:15;;;;;;;17.30;12.30;;;;;;;;;;5087661;28;20024;-77
2022/05/16 01:55:42;;;;;;;17.07;13.07;;;;;;;;;;5107530;28;20035;-77
2022/05/16 01:58:10;;;;;;;17.83;12.47;;;;;;;;;;5107488;28;20076;-79
2022/05/16 02:00:37;;;;;;;17.90;11.50;;;;;;;;;;5109149;28;20051;-78
2022/05/16 02:03:08;;;;;;;18.30;11.70;;;;;;;;;;5112495;28;20493;-77
2022/05/16 02:05:35;;;;;;;15.70;10.77;;;;;;;;;;5093817;28;20553;-78
2022/05/16 02:08:01;;;;;;;19.00;12.07;;;;;;;;;;5093872;28;20435;-78
2022/05/16 02:10:28;;;;;;;14.67;11.30;;;;;;;;;;5093893;28;20502;-78
2022/05/16 02:12:59;;;;;;;26.47;12.27;;;;;;;;;;5091698;28;20483;-78
2022/05/16 02:15:27;;;;;;;14.23;10.83;;;;;;;;;;5089455;28;20115;-78
2022/05/16 02:17:54;;;;;;;15.63;11.30;;;;;;;;;;5108699;28;20082;-78
2022/05/16 02:20:21;;;;;;;15.53;11.70;;;;;;;;;;5108882;28;20382;-77
2022/05/16 02:25:36;;;;;;;15.93;10.87;;;;;;;;;;5113817;28;20076;-78
2022/05/16 02:28:03;;;;;;;15.83;11.73;;;;;;;;;;5106338;28;20031;-78
2022/05/16 02:30:30;;;;;;;16.20;11.57;;;;;;;;;;5093560;28;20039;-77
2022/05/16 02:32:57;;;;;;;24.37;13.60;;;;;;;;;;5093433;28;20024;-78
2022/05/16 02:35:24;;;;;;;19.87;12.20;;;;;;;;;;5091183;28;20454;-77
2022/05/16 02:37:51;;;;;;;18.13;11.50;;;;;;;;;;5088004;28;20022;-78
2022/05/16 02:40:18;;;;;;;19.73;12.57;;;;;;;;;;5093588;28;20027;-77
2022/05/16 02:42:44;;;;;;;15.70;10.67;;;;;;;;;;5107797;28;20028;-77
2022/05/16 02:45:11;;;;;;;17.13;10.70;;;;;;;;;;5109297;28;20020;-78
2022/05/16 02:47:38;;;;;;;16.77;11.27;;;;;;;;;;5113653;28;20359;-78
2022/05/16 02:50:05;;;;;;;31.43;11.50;;;;;;;;;;5113557;28;20027;-77
2022/05/16 02:52:32;;;;;;;17.17;12.77;;;;;;;;;;5107867;28;20031;-78
2022/05/16 02:55:01;;;;;;;19.97;13.13;;;;;;;;;;5092925;28;20479;-78
2022/05/16 02:57:29;;;;;;;17.43;12.80;;;;;;;;;;5091426;28;20538;-77
2022/05/16 02:59:56;;;;;;;20.20;13.40;;;;;;;;;;5087533;28;20070;-78
2022/05/16 03:02:23;;;;;;;17.13;12.03;;;;;;;;;;5092525;28;20039;-77
2022/05/16 03:04:50;;;;;;;21.73;11.97;;;;;;;;;;5108056;28;20027;-78
2022/05/16 03:07:17;;;;;;;15.03;10.07;;;;;;;;;;5108682;28;20039;-78
2022/05/16 03:09:44;;;;;;;14.17;10.40;;;;;;;;;;5113335;28;20012;-77
2022/05/16 03:12:10;;;;;;;23.13;11.77;;;;;;;;;;5109409;28;20078;-77
2022/05/16 03:14:37;;;;;;;20.80;13.37;;;;;;;;;;5092564;28;20127;-77
2022/05/16 03:17:04;;;;;;;16.57;11.97;;;;;;;;;;5093687;28;20475;-77
2022/05/16 03:19:31;;;;;;;21.80;13.37;;;;;;;;;;5111895;28;20040;-77
2022/05/16 03:21:57;;;;;;;21.40;13.17;;;;;;;;;;5107685;28;20800;-77
2022/05/16 03:24:24;;;;;;;18.00;13.00;;;;;;;;;;5107678;28;20084;-78
2022/05/16 03:26:51;;;;;;;15.93;11.87;;;;;;;;;;5105927;28;20065;-77
2022/05/16 03:29:17;;;;;;;14.63;12.30;;;;;;;;;;5107660;28;20039;-77
2022/05/16 03:31:44;;;;;;;21.13;14.03;;;;;;;;;;5112814;28;20019;-78
2022/05/16 03:34:12;;;;;;;17.57;13.23;;;;;;;;;;5112781;28;20119;-79
2022/05/16 03:36:39;;;;;;;21.50;13.63;;;;;;;;;;5096929;28;20094;-76
2022/05/16 03:41:51;;;;;;;22.60;12.90;;;;;;;;;;5091461;28;20081;-76
2022/05/16 03:44:19;;;;;;;19.37;12.27;;;;;;;;;;5087060;28;20382;-76
2022/05/16 03:46:45;;;;;;;17.77;12.23;;;;;;;;;;5086927;28;20026;-77
2022/05/16 03:49:12;;;;;;;15.93;11.20;;;;;;;;;;5087227;28;20032;-77
2022/05/16 03:51:39;;;;;;;19.00;13.00;;;;;;;;;;5087124;28;20028;-77
2022/05/16 03:54:06;;;;;;;17.23;12.03;;;;;;;;;;5093563;28;20084;-77
2022/05/16 03:56:33;;;;;;;16.30;12.67;;;;;;;;;;5096323;28;20016;-77
2022/05/16 03:59:00;;;;;;;21.73;13.80;;;;;;;;;;5105962;28;20027;-76
2022/05/16 04:01:27;;;;;;;18.00;11.60;;;;;;;;;;5116501;28;20035;-76
2022/05/16 04:03:55;;;;;;;15.43;10.50;;;;;;;;;;5116319;28;20511;-77
2022/05/16 04:06:22;;;;;;;17.63;11.73;;;;;;;;;;5111537;28;20073;-77
2022/05/16 04:08:49;;;;;;;19.73;12.53;;;;;;;;;;5103688;28;20039;-76
2022/05/16 04:11:16;;;;;;;16.30;11.67;;;;;;;;;;5090793;28;20054;-76
2022/05/16 04:13:44;;;;;;;21.43;13.70;;;;;;;;;;5090985;28;20028;-76
2022/05/16 04:16:11;;;;;;;20.20;13.90;;;;;;;;;;5095770;28;20023;-77
2022/05/16 04:18:37;;;;;;;23.40;14.43;;;;;;;;;;5096336;28;20483;-77
2022/05/16 04:21:05;;;;;;;18.37;13.00;;;;;;;;;;5105953;28;20107;-77
2022/05/16 04:23:32;;;;;;;18.37;12.83;;;;;;;;;;5116406;28;20019;-77
2022/05/16 04:25:59;;;;;;;18.07;13.10;;;;;;;;;;5116336;28;20027;-77
2022/05/16 04:28:26;;;;;;;16.93;12.87;;;;;;;;;;5110914;28;20053;-77
2022/05/16 04:30:52;;;;;;;16.23;12.27;;;;;;;;;;5110982;28;20032;-76
2022/05/16 04:33:19;;;;;;;17.57;12.30;;;;;;;;;;5100433;28;20471;-76
2022/05/16 04:35:46;;;;;;;23.13;11.90;;;;;;;;;;5090407;28;20099;-77
2022/05/16 04:38:13;;;;;;;16.37;11.80;;;;;;;;;;5094329;28;20020;-77
2022/05/16 04:43:27;;;;;;;16.97;12.53;;;;;;;;;;5044084;28;20059;-77
2022/05/16 04:45:53;;;;;;;21.63;11.87;;;;;;;;;;5107725;28;20027;-77
2022/05/16 04:48:20;;;;;;;28.87;15.33;;;;;;;;;;5115925;28;20051;-77
2022/05/16 04:50:47;;;;;;;17.03;13.17;;;;;;;;;;5110132;28;20530;-77
2022/05/16 04:53:13;;;;;;;22.67;14.30;;;;;;;;;;5106297;28;20032;-76
2022/05/16 04:55:40;;;;;;;19.00;12.13;;;;;;;;;;5090136;28;20040;-76
2022/05/16 04:58:07;;;;;;;20.17;12.87;;;;;;;;;;5090072;28;20028;-77
2022/05/16 05:00:34;;;;;;;23.30;12.53;;;;;;;;;;5094536;28;20024;-77
2022/05/16 05:03:00;;;;;;;16.20;13.60;;;;;;;;;;5096505;28;20106;-77
2022/05/16 05:05:27;;;;;;;19.97;13.30;;;;;;;;;;5115564;28;20026;-77
2022/05/16 05:07:54;;;;;;;18.67;13.60;;;;;;;;;;5115110;28;20028;-78
2022/05/16 05:16:02;;;;;;;24.40;15.50;;;;;;;;;;5103637;28;20094;-78
2022/05/16 05:18:28;;;;;;;18.27;14.57;;;;;;;;;;5089630;28;20394;-77
2022/05/16 05:20:55;;;;;;;20.27;14.83;;;;;;;;;;5089655;28;20028;-77
2022/05/16 05:23:22;;;;;;;22.70;14.13;;;;;;;;;;5094854;28;20020;-77
2022/05/16 05:25:49;;;;;;;18.57;12.50;;;;;;;;;;5094791;28;20034;-76
2022/05/16 05:28:15;;;;;;;18.93;13.10;;;;;;;;;;5102188;28;20089;-77
2022/05/16 05:30:42;;;;;;;19.27;13.73;;;;;;;;;;5114902;28;20023;-78
2022/05/16 05:33:09;;;;;;;18.77;13.00;;;;;;;;;;5114916;28;20020;-77
2022/05/16 05:35:36;;;;;;;18.50;12.70;;;;;;;;;;5109639;28;20074;-77
2022/05/16 05:38:03;;;;;;;18.17;12.73;;;;;;;;;;5109707;28;20020;-77
2022/05/16 05:40:30;;;;;;;24.80;13.73;;;;;;;;;;5098429;28;20032;-77
2022/05/16 05:42:56;;;;;;;19.33;13.03;;;;;;;;;;5089222;28;20020;-77
2022/05/16 05:45:23;;;;;;;20.43;13.53;;;;;;;;;;5094073;28;20020;-77
2022/05/16 05:47:50;;;;;;;23.50;15.60;;;;;;;;;;5094288;28;20463;-78
2022/05/16 05:50:16;;;;;;;22.13;12.77;;;;;;;;;;5094269;28;20483;-78
2022/05/16 05:52:43;;;;;;;21.90;15.37;;;;;;;;;;5104561;28;20032;-77
2022/05/16 05:55:11;;;;;;;19.87;14.30;;;;;;;;;;5114458;28;20038;-77
2022/05/16 05:57:38;;;;;;;20.67;14.00;;;;;;;;;;5109599;28;20032;-77
2022/05/16 06:00:09;;;;;;;22.53;15.73;;;;;;;;;;5103813;28;20040;-77
2022/05/16 06:02:37;;;;;;;18.77;14.70;;;;;;;;;;5089001;28;20024;-76
2022/05/16 06:05:04;;;;;;;18.17;13.47;;;;;;;;;;5088400;28;20031;-78
2022/05/16 06:07:32;;;;;;;16.43;12.17;;;;;;;;;;5092964;28;20020;-77
2022/05/16 06:09:59;;;;;;;17.60;13.13;;;;;;;;;;5097629;28;20745;-77
2022/05/16 06:12:25;;;;;;;17.17;12.27;;;;;;;;;;5114144;28;20038;-77
2022/05/16 06:14:52;;;;;;;21.17;13.50;;;;;;;;;;5114244;28;20058;-77
2022/05/16 06:17:20;;;;;;;21.17;15.23;;;;;;;;;;5113703;28;20045;-76
2022/05/16 06:19:47;;;;;;;22.73;13.70;;;;;;;;;;5092856;28;20028;-77
2022/05/16 06:22:14;;;;;;;19.13;14.60;;;;;;;;;;5088630;28;20055;-77
2022/05/16 06:27:31;;;;;;;22.02;13.93;;;;;;;;;;5088326;28;20082;-76
2022/05/16 06:29:58;;;;;;;17.03;12.97;;;;;;;;;;5110345;28;20047;-77
2022/05/16 06:32:25;;;;;;;21.00;14.07;;;;;;;;;;5103250;28;20020;-78
2022/05/16 06:34:52;;;;;;;16.03;11.10;;;;;;;;;;5106692;28;20040;-77
2022/05/16 06:37:19;;;;;;;16.90;12.20;;;;;;;;;;5113346;28;20084;-77
2022/05/16 06:39:46;;;;;;;20.13;13.57;;;;;;;;;;5112812;28;20072;-76
2022/05/16 06:42:13;;;;;;;21.00;12.80;;;;;;;;;;5088408;28;20477;-76
2022/05/16 06:44:41;;;;;;;17.10;12.63;;;;;;;;;;5088027;28;20016;-77
2022/05/16 06:47:08;;;;;;;18.40;12.83;;;;;;;;;;5087924;28;20031;-76
2022/05/16 06:49:34;;;;;;;18.30;11.90;;;;;;;;;;5087941;28;20024;-77
2022/05/16 06:52:01;;;;;;;18.77;11.77;;;;;;;;;;5096981;28;20092;-77
2022/05/16 06:54:28;;;;;;;15.97;11.57;;;;;;;;;;5113454;28;20028;-77
2022/05/16 06:56:54;;;;;;;17.80;11.73;;;;;;;;;;5113448;28;20031;-77
2022/05/16 06:59:21;;;;;;;19.37;12.33;;;;;;;;;;5113514;28;20428;-76
2022/05/16 07:01:48;;;;;;;16.83;12.33;;;;;;;;;;5095978;28;20028;-76
2022/05/16 07:04:14;;;;;;;17.57;11.60;;;;;;;;;;5102578;28;20474;-76
2022/05/16 07:06:41;;;;;;;15.03;11.10;;;;;;;;;;5091636;28;20036;-77
2022/05/16 07:09:08;;;;;;;16.60;10.80;;;;;;;;;;5087608;28;20028;-77
2022/05/16 07:11:35;;;;;;;21.23;13.57;;;;;;;;;;5087428;28;20114;-77
2022/05/16 07:14:01;;;;;;;19.53;14.00;;;;;;;;;;5097011;28;20045;-76
2022/05/16 07:16:28;;;;;;;17.70;12.97;;;;;;;;;;5113109;28;20027;-77
2022/05/16 07:18:55;;;;;;;21.03;13.50;;;;;;;;;;5113183;28;20027;-76
2022/05/16 07:21:21;;;;;;;25.27;13.50;;;;;;;;;;5112833;28;20462;-77
2022/05/16 07:23:48;;;;;;;15.93;11.07;;;;;;;;;;5109672;28;20028;-77
2022/05/16 07:29:00;;;;;;;18.50;12.82;;;;;;;;;;5086508;28;20093;-76
2022/05/16 07:31:27;;;;;;;18.67;13.30;;;;;;;;;;5087458;28;20059;-76
2022/05/16 07:33:53;;;;;;;16.27;10.17;;;;;;;;;;5087178;28;20420;-76
2022/05/16 07:36:20;;;;;;;14.43;10.80;;;;;;;;;;5096025;28;20080;-77
2022/05/16 07:38:47;;;;;;;16.67;11.10;;;;;;;;;;5113000;28;20027;-76
2022/05/16 07:41:13;;;;;;;14.97;10.93;;;;;;;;;;5112946;28;20015;-76
2022/05/16 07:43:40;;;;;;;15.57;11.07;;;;;;;;;;5112932;28;20035;-76
2022/05/16 07:46:07;;;;;;;17.50;11.43;;;;;;;;;;5112859;28;20169;-76
2022/05/16 07:48:34;;;;;;;18.07;11.07;;;;;;;;;;5103065;28;20027;-76
2022/05/16 07:51:00;;;;;;;12.90;10.27;;;;;;;;;;5087268;28;20036;-77
2022/05/16 07:53:27;;;;;;;20.10;12.60;;;;;;;;;;5086428;28;20091;-77
2022/05/16 07:55:55;;;;;;;16.03;11.17;;;;;;;;;;5087004;28;20064;-77
2022/05/16 07:58:23;;;;;;;19.17;12.80;;;;;;;;;;5089959;28;20470;-76
2022/05/16 08:00:50;;;;;;;17.17;11.73;;;;;;;;;;5102276;28;20051;-77
2022/05/16 08:03:18;;;;;;;16.17;11.13;;;;;;;;;;5112432;28;20022;-76
2022/05/16 08:05:45;;;;;;;13.30;9.47;;;;;;;;;;5112457;28;20043;-76
2022/05/16 08:10:59;;;;;;;20.20;11.27;;;;;;;;;;5108456;28;20054;-77
2022/05/16 08:13:26;;;;;;;14.50;11.03;;;;;;;;;;5089265;28;20060;-76
2022/05/16 08:15:52;;;;;;;14.20;9.90;;;;;;;;;;5086734;28;20032;-77
2022/05/16 08:18:19;;;;;;;14.17;10.87;;;;;;;;;;5086947;28;20029;-77
2022/05/16 08:20:47;;;;;;;14.67;10.50;;;;;;;;;;5098633;28;20479;-77
2022/05/16 08:23:15;;;;;;;14.33;10.00;;;;;;;;;;5112573;28;20020;-77
2022/05/16 08:25:44;;;;;;;15.03;10.20;;;;;;;;;;5112355;28;20016;-76
2022/05/16 08:28:11;;;;;;;15.83;11.47;;;;;;;;;;5112175;28;20099;-77
2022/05/16 08:30:37;;;;;;;18.77;12.57;;;;;;;;;;5104573;28;20082;-77
2022/05/16 08:33:04;;;;;;;16.83;11.87;;;;;;;;;;5088375;28;20566;-76
2022/05/16 08:35:31;;;;;;;17.50;10.50;;;;;;;;;;5086810;28;20490;-76
2022/05/16 08:40:53;;;;;;;16.83;10.48;;;;;;;;;;5089121;28;20551;-76
2022/05/16 08:43:26;;;;;;;14.47;9.90;;;;;;;;;;5105366;28;20024;-77
2022/05/16 08:46:03;;;;;;;13.37;8.37;;;;;;;;;;5115592;28;20015;-78
2022/05/16 08:48:36;;;;;;;13.07;9.03;;;;;;;;;;5115756;28;20016;-77
2022/05/16 08:51:23;;;;;;;11.77;8.30;;;;;;;;;;5115987;28;20478;-76
2022/05/16 08:54:00;;;;;;;14.83;10.03;;;;;;;;;;5113187;28;20020;-77
2022/05/16 08:56:31;;;;;;;14.07;9.57;;;;;;;;;;5090024;28;20028;-76
2022/05/16 08:59:02;;;;;;;12.80;9.20;;;;;;;;;;5090440;28;20051;-76
2022/05/16 09:01:34;;;;;;;13.27;10.03;;;;;;;;;;5090082;28;20012;-76
2022/05/16 09:04:02;;;;;;;16.50;11.43;;;;;;;;;;5092093;28;20047;-76
2022/05/16 09:06:49;;;;;;;14.50;9.77;;;;;;;;;;5113431;28;20031;-77
2022/05/16 09:09:18;;;;;;;11.33;8.67;;;;;;;;;;5115415;28;20029;-77
2022/05/16 09:11:53;;;;;;;15.87;9.23;;;;;;;;;;5115391;28;20062;-76
2022/05/16 09:14:38;;;;;;;16.03;9.83;;;;;;;;;;5110302;28;20028;-76
2022/05/16 09:17:09;;;;;;;11.55;7.82;;;;;;;;;;5092419;28;20032;-76
2022/05/16 09:20:05;;;;;;;15.47;11.17;;;;;;;;;;5089628;28;20024;-76
2022/05/16 09:22:33;;;;;;;13.23;9.63;;;;;;;;;;5000123;28;20061;-77
2022/05/16 09:25:05;;;;;;;14.73;10.30;;;;;;;;;;5089774;28;20422;-76
2022/05/16 09:30:24;;;;;;;12.53;9.00;;;;;;;;;;5115403;28;20089;-76
2022/05/16 09:32:59;;;;;;;12.67;8.70;;;;;;;;;;5097140;28;20401;-77
2022/05/16 09:35:29;;;;;;;13.80;9.23;;;;;;;;;;5115175;28;20439;-77
2022/05/16 09:37:58;;;;;;;14.60;8.80;;;;;;;;;;5113476;28;20742;-76
2022/05/16 09:40:38;;;;;;;20.63;11.23;;;;;;;;;;5089714;28;20032;-76
2022/05/16 09:43:09;;;;;;;20.00;11.60;;;;;;;;;;5089278;28;20024;-77
2022/05/16 09:45:36;;;;;;;16.03;10.23;;;;;;;;;;5089169;28;20020;-76
2022/05/16 09:48:15;;;;;;;14.47;10.53;;;;;;;;;;5104477;28;20307;-76
2022/05/16 09:50:42;;;;;;;14.73;10.13;;;;;;;;;;5114337;28;20761;-76
2022/05/16 09:53:12;;;;;;;18.03;10.50;;;;;;;;;;5114065;28;20252;-78
2022/05/16 09:56:02;;;;;;;14.27;9.27;;;;;;;;;;5114692;28;20276;-77
2022/05/16 09:58:46;;;;;;;16.57;10.03;;;;;;;;;;5094998;28;20281;-76
2022/05/16 10:01:14;;;;;;;14.63;9.80;;;;;;;;;;5092120;28;20249;-77
2022/05/16 10:03:43;;;;;;;16.37;9.97;;;;;;;;;;5088848;28;20736;-76
2022/05/16 10:06:26;;;;;;;14.47;10.53;;;;;;;;;;5088944;28;20252;-75
2022/05/16 10:08:53;;;;;;;15.70;9.00;;;;;;;;;;5076737;28;20260;-75
2022/05/16 10:11:22;;;;;;;16.17;10.40;;;;;;;;;;5110192;28;20763;-76
2022/05/16 10:13:49;;;;;;;15.77;10.83;;;;;;;;;;5113893;28;20244;-77
2022/05/16 10:16:16;;;;;;;21.93;11.20;;;;;;;;;;5113862;28;20766;-76
2022/05/16 10:18:45;;;;;;;14.60;9.60;;;;;;;;;;5114200;28;20260;-76
2022/05/16 10:21:16;;;;;;;16.37;11.47;;;;;;;;;;5105699;28;20260;-76
2022/05/16 10:23:45;;;;;;;18.73;11.07;;;;;;;;;;5091743;28;20711;-75
2022/05/16 10:26:17;;;;;;;17.93;11.40;;;;;;;;;;5088386;28;20245;-75
2022/05/16 10:29:03;;;;;;;19.80;11.87;;;;;;;;;;5088281;28;20272;-76
2022/05/16 10:34:27;;;;;;;15.27;11.03;;;;;;;;;;5109104;28;20274;-76
2022/05/16 10:36:55;;;;;;;18.73;10.00;;;;;;;;;;5113950;28;20735;-75
2022/05/16 10:39:26;;;;;;;18.33;12.00;;;;;;;;;;5113953;28;20259;-75
2022/05/16 10:42:03;;;;;;;21.07;14.37;;;;;;;;;;5113720;28;20256;-76
2022/05/16 10:44:49;;;;;;;16.17;11.10;;;;;;;;;;5110322;28;20267;-79
2022/05/16 10:47:19;;;;;;;17.77;10.67;;;;;;;;;;5088514;28;20268;-74
2022/05/16 10:49:51;;;;;;;15.17;10.27;;;;;;;;;;5088076;28;20258;-75
2022/05/16 10:52:17;;;;;;;18.33;12.47;;;;;;;;;;5087975;28;20257;-75
2022/05/16 10:54:44;;;;;;;20.87;13.03;;;;;;;;;;5087532;28;20288;-76
2022/05/16 10:57:39;;;;;;;19.67;12.73;;;;;;;;;;5099473;28;20275;-74
2022/05/16 11:00:07;;;;;;;16.97;10.17;;;;;;;;;;5113139;28;20788;-75
2022/05/16 11:02:47;;;;;;;22.10;14.70;;;;;;;;;;5113187;28;20248;-74
2022/05/16 11:05:19;;;;;;;21.17;13.37;;;;;;;;;;5113489;28;20319;-75
2022/05/16 11:07:55;;;;;;;26.60;13.83;;;;;;;;;;5112396;28;20263;-74
2022/05/16 11:10:25;;;;;;;17.80;12.17;;;;;;;;;;5091374;28;20413;-74
2022/05/16 11:13:01;;;;;;;26.83;13.93;;;;;;;;;;5087472;28;20347;-74
2022/05/16 11:15:34;;;;;;;24.07;14.30;;;;;;;;;;5087406;28;20379;-75
2022/05/16 11:18:10;;;;;;;17.87;11.90;;;;;;;;;;5088834;28;20265;-75
2022/05/16 11:20:42;;;;;;;24.77;12.40;;;;;;;;;;5092645;28;20252;-74
2022/05/16 11:23:25;;;;;;;18.80;13.57;;;;;;;;;;5112896;28;20282;-74
2022/05/16 11:25:57;;;;;;;19.77;12.87;;;;;;;;;;5113047;28;20260;-75
2022/05/16 11:28:33;;;;;;;18.53;12.17;;;;;;;;;;5113023;28;20657;-75
2022/05/16 11:31:00;;;;;;;14.77;10.63;;;;;;;;;;5109786;28;20275;-74
2022/05/16 11:33:26;;;;;;;17.87;10.33;;;;;;;;;;5105277;28;20394;-75
2022/05/16 11:35:58;;;;;;;16.87;10.27;;;;;;;;;;5107466;28;20283;-75
2022/05/16 11:38:37;;;;;;;21.97;12.70;;;;;;;;;;5107567;28;20352;-75
2022/05/16 11:41:07;;;;;;;20.43;12.10;;;;;;;;;;5110627;28;20340;-75
2022/05/16 11:43:42;;;;;;;17.60;11.93;;;;;;;;;;5112655;28;20252;-75
2022/05/16 11:46:13;;;;;;;22.42;12.13;;;;;;;;;;5094908;28;20256;-75
2022/05/16 11:48:52;;;;;;;19.00;11.07;;;;;;;;;;5092530;28;20051;-74
2022/05/16 11:51:18;;;;;;;14.70;9.30;;;;;;;;;;5092226;28;20743;-75
2022/05/16 11:53:50;;;;;;;16.33;9.80;;;;;;;;;;5087831;28;20653;-75
2022/05/16 12:02:13;;;;;;;15.37;9.63;;;;;;;;;;5107811;28;20147;-75
2022/05/16 12:04:42;;;;;;;18.77;10.00;;;;;;;;;;5112728;28;20299;-75
2022/05/16 12:07:19;;;;;;;19.27;9.90;;;;;;;;;;5112482;28;20273;-74
2022/05/16 12:10:06;;;;;;;16.37;9.90;;;;;;;;;;5102650;28;20801;-74
2022/05/16 12:12:34;;;;;;;17.73;9.90;;;;;;;;;;5094540;28;20622;-74
2022/05/16 12:15:18;;;;;;;21.60;10.83;;;;;;;;;;5111559;28;20344;-74
2022/05/16 12:17:51;;;;;;;19.98;11.05;;;;;;;;;;5111258;28;20256;-77
2022/05/16 12:20:33;;;;;;;22.53;11.90;;;;;;;;;;5111247;28;20027;-75
2022/05/16 12:23:00;;;;;;;25.93;15.07;;;;;;;;;;5109401;28;20259;-74
2022/05/16 12:25:27;;;;;;;19.17;13.53;;;;;;;;;;5113579;28;20264;-74
2022/05/16 12:28:12;;;;;;;24.60;13.53;;;;;;;;;;5116301;28;20256;-74
2022/05/16 12:30:39;;;;;;;24.38;14.23;;;;;;;;;;5111399;28;20773;-74
2022/05/16 12:33:07;;;;;;;20.67;12.70;;;;;;;;;;5096013;28;20082;-74
2022/05/16 12:35:38;;;;;;;22.90;13.07;;;;;;;;;;5095860;28;20280;-75
2022/05/16 12:38:06;;;;;;;18.53;10.87;;;;;;;;;;5091522;28;20259;-74
2022/05/16 12:40:38;;;;;;;25.47;13.70;;;;;;;;;;5093179;28;20264;-76
2022/05/16 12:43:13;;;;;;;23.57;13.03;;;;;;;;;;5110937;28;20256;-75
2022/05/16 12:45:59;;;;;;;21.65;11.60;;;;;;;;;;5110744;28;20317;-74
2022/05/16 12:48:32;;;;;;;22.58;11.63;;;;;;;;;;5115387;28;20099;-74
2022/05/16 12:51:21;;;;;;;21.37;13.10;;;;;;;;;;5116015;28;20496;-75
2022/05/16 12:54:06;;;;;;;27.40;14.30;;;;;;;;;;5102620;28;20264;-74
2022/05/16 12:56:35;;;;;;;24.67;14.65;;;;;;;;;;5094956;28;20307;-76
2022/05/16 12:59:03;;;;;;;24.47;14.73;;;;;;;;;;5093995;28;20016;-75
2022/05/16 13:01:33;;;;;;;25.77;16.37;;;;;;;;;;5089978;28;20778;-75
2022/05/16 13:04:12;;;;;;;27.57;15.07;;;;;;;;;;5089954;28;20253;-74
2022/05/16 13:06:45;;;;;;;28.93;16.30;;;;;;;;;;5090005;28;20265;-74
2022/05/16 13:09:13;;;;;;;27.83;15.67;;;;;;;;;;5111724;28;20270;-75
2022/05/16 13:11:56;;;;;;;26.57;12.43;;;;;;;;;;5115591;28;20295;-75
2022/05/16 13:14:41;;;;;;;18.83;12.80;;;;;;;;;;5115553;28;20766;-74
2022/05/16 13:17:10;;;;;;;21.13;12.88;;;;;;;;;;5112274;28;20012;-75
2022/05/16 13:19:43;;;;;;;26.67;12.50;;;;;;;;;;5094887;28;20497;-74
2022/05/16 13:22:21;;;;;;;17.17;11.80;;;;;;;;;;5092615;28;20016;-74
2022/05/16 13:24:52;;;;;;;31.87;14.37;;;;;;;;;;5090358;28;20035;-74
2022/05/16 13:30:07;;;;;;;23.80;13.30;;;;;;;;;;5089858;28;20062;-75
2022/05/16 13:32:34;;;;;;;26.20;13.37;;;;;;;;;;5093643;28;20070;-75
2022/05/16 13:35:02;;;;;;;26.77;14.53;;;;;;;;;;5104789;28;20093;-75
2022/05/16 13:37:40;;;;;;;26.93;13.80;;;;;;;;;;5106964;28;20016;-75
2022/05/16 13:40:09;;;;;;;29.73;14.40;;;;;;;;;;5094682;28;20527;-75
2022/05/16 13:42:38;;;;;;;31.50;15.30;;;;;;;;;;5094481;28;20097;-75
2022/05/16 13:45:05;;;;;;;30.37;12.93;;;;;;;;;;5089796;28;20020;-75
2022/05/16 13:47:33;;;;;;;37.57;14.77;;;;;;;;;;5095843;28;20051;-74
2022/05/16 13:49:59;;;;;;;28.47;14.37;;;;;;;;;;5109148;28;20035;-75
2022/05/16 13:52:38;;;;;;;36.47;13.17;;;;;;;;;;5109520;28;20027;-75
2022/05/16 13:55:08;;;;;;;25.30;14.20;;;;;;;;;;5114021;28;20039;-75
2022/05/16 13:57:35;;;;;;;22.60;13.97;;;;;;;;;;5114878;28;20022;-75
2022/05/16 14:00:12;;;;;;;21.33;13.00;;;;;;;;;;5112859;28;20378;-75
2022/05/16 14:02:39;;;;;;;27.67;13.60;;;;;;;;;;5114031;28;20436;-75
2022/05/16 14:05:10;;;;;;;22.33;13.43;;;;;;;;;;5114401;28;20088;-74
2022/05/16 14:07:37;;;;;;;23.57;12.80;;;;;;;;;;5109233;28;20024;-75
2022/05/16 14:10:06;;;;;;;17.27;10.47;;;;;;;;;;5109062;28;20034;-74
2022/05/16 14:12:35;;;;;;;18.70;10.20;;;;;;;;;;5094836;28;20060;-74
2022/05/16 14:15:05;;;;;;;17.13;9.47;;;;;;;;;;5088406;28;20064;-76
2022/05/16 14:17:42;;;;;;;16.77;10.50;;;;;;;;;;5093755;28;20020;-75
2022/05/16 14:20:15;;;;;;;13.30;9.63;;;;;;;;;;5094241;28;20365;-74
2022/05/16 14:22:43;;;;;;;20.57;9.27;;;;;;;;;;5093862;28;20017;-75
2022/05/16 14:25:11;;;;;;;13.20;8.97;;;;;;;;;;5110290;28;20042;-76
2022/05/16 14:27:40;;;;;;;15.17;9.00;;;;;;;;;;5113053;28;20031;-76
2022/05/16 14:30:13;;;;;;;11.87;8.07;;;;;;;;;;5108627;28;20029;-75
2022/05/16 14:32:44;;;;;;;13.07;8.83;;;;;;;;;;5108694;28;20078;-75
2022/05/16 14:35:13;;;;;;;14.50;9.53;;;;;;;;;;5098371;28;21344;-75
2022/05/16 14:37:40;;;;;;;15.23;9.30;;;;;;;;;;5087955;28;20107;-76
2022/05/16 14:40:10;;;;;;;12.10;9.27;;;;;;;;;;5112847;28;20474;-76
2022/05/16 14:42:41;;;;;;;13.60;8.97;;;;;;;;;;5113766;28;20022;-75
2022/05/16 14:45:11;;;;;;;12.00;9.23;;;;;;;;;;5113703;28;20031;-74
2022/05/16 14:47:40;;;;;;;17.07;10.20;;;;;;;;;;5113796;28;20152;-75
2022/05/16 14:50:15;;;;;;;13.70;10.53;;;;;;;;;;5110066;28;20120;-76
2022/05/16 14:52:45;;;;;;;13.00;10.00;;;;;;;;;;5108356;28;20570;-76
2022/05/16 14:55:13;;;;;;;15.17;11.63;;;;;;;;;;5108221;28;20031;-74
2022/05/16 14:57:41;;;;;;;15.47;11.47;;;;;;;;;;5108272;28;20153;-75
2022/05/16 15:04:02;;;;;;;20.10;11.70;;;;;;;;;;5106125;28;20036;-75
2022/05/16 15:05:42;;;;;;;18.27;13.90;;;;;;;;;;5093075;28;20065;-76
2022/05/16 15:08:09;;;;;;;19.40;14.77;;;;;;;;;;5092778;28;20024;-75
2022/05/16 15:10:36;;;;;;;17.47;14.20;;;;;;;;;;5092695;28;20047;-76
2022/05/16 15:13:03;;;;;;;18.37;15.07;;;;;;;;;;5090987;28;20435;-76
2022/05/16 15:15:30;;;;;;;22.60;15.93;;;;;;;;;;5087504;28;20426;-75
2022/05/16 15:17:57;;;;;;;16.70;13.83;;;;;;;;;;5087264;28;20478;-76